createdAt,value
2016-06-30T00:00:18.664Z,1006.11
2016-06-30T00:01:18.703Z,1006.09
2016-06-30T00:02:18.463Z,1006.11
2016-06-30T00:03:18.461Z,1006.11
2016-06-30T00:04:18.462Z,1006.11
2016-06-30T00:05:18.467Z,1006.08
2016-06-30T00:06:18.463Z,1006.09
2016-06-30T00:07:18.463Z,1006.04
2016-06-30T00:08:18.465Z,1006.04
2016-06-30T00:09:18.465Z,1006.08
2016-06-30T00:10:18.468Z,1006.04
2016-06-30T00:11:18.666Z,1006.05
2016-06-30T00:12:18.467Z,1006.06
2016-06-30T00:13:18.467Z,1006.05
2016-06-30T00:14:18.471Z,1006.07
2016-06-30T00:15:18.468Z,1006.07
2016-06-30T00:16:18.467Z,1006.05
2016-06-30T00:17:18.466Z,1006.04
2016-06-30T00:18:18.473Z,1006.04
2016-06-30T00:19:18.475Z,1006.07
2016-06-30T00:20:18.470Z,1006.01
2016-06-30T00:21:18.467Z,1005.99
2016-06-30T00:22:18.476Z,1006
2016-06-30T00:23:18.675Z,1006
2016-06-30T00:24:18.473Z,1005.97
2016-06-30T00:25:18.474Z,1005.96
2016-06-30T00:26:18.472Z,1005.95
2016-06-30T00:27:18.474Z,1005.99
2016-06-30T00:28:18.476Z,1005.99
2016-06-30T00:29:18.473Z,1005.97
2016-06-30T00:30:18.473Z,1005.97
2016-06-30T00:31:18.495Z,1005.99
2016-06-30T00:32:18.481Z,1006.03
2016-06-30T00:33:18.478Z,1006.05
2016-06-30T00:34:18.477Z,1006.03
2016-06-30T00:35:18.477Z,1006.01
2016-06-30T00:36:18.483Z,1006
2016-06-30T00:37:18.480Z,1006.01
2016-06-30T00:38:18.480Z,1006.02
2016-06-30T00:39:18.479Z,1006.04
2016-06-30T00:40:18.477Z,1006.05
2016-06-30T00:41:18.483Z,1006.04
2016-06-30T00:42:18.480Z,1006.02
2016-06-30T00:43:18.475Z,1006.05
2016-06-30T00:44:18.477Z,1006.02
2016-06-30T00:45:18.483Z,1006
2016-06-30T00:46:18.483Z,1006.02
2016-06-30T00:47:18.482Z,1006.03
2016-06-30T00:48:18.484Z,1006.03
2016-06-30T00:49:18.489Z,1006.03
2016-06-30T00:50:18.481Z,1006.01
2016-06-30T00:51:18.485Z,1006.01
2016-06-30T00:52:18.483Z,1006.03
2016-06-30T00:53:18.693Z,1006
2016-06-30T00:54:18.484Z,1005.99
2016-06-30T00:55:18.486Z,1005.99
2016-06-30T00:56:18.483Z,1005.98
2016-06-30T00:57:18.483Z,1006
2016-06-30T00:58:18.489Z,1005.99
2016-06-30T00:59:18.693Z,1006.01
2016-06-30T01:00:18.495Z,1005.94
2016-06-30T01:01:18.488Z,1005.93
2016-06-30T01:02:18.489Z,1005.97
2016-06-30T01:03:18.485Z,1005.98
2016-06-30T01:04:18.486Z,1005.98
2016-06-30T01:05:18.486Z,1005.96
2016-06-30T01:06:18.486Z,1005.96
2016-06-30T01:07:18.488Z,1005.95
2016-06-30T01:08:18.497Z,1005.93
2016-06-30T01:09:18.487Z,1005.96
2016-06-30T01:10:18.488Z,1005.94
2016-06-30T01:11:18.491Z,1005.94
2016-06-30T01:12:18.686Z,1005.9
2016-06-30T01:13:18.487Z,1005.87
2016-06-30T01:14:18.491Z,1005.87
2016-06-30T01:15:18.492Z,1005.85
2016-06-30T01:16:18.495Z,1005.89
2016-06-30T01:17:18.497Z,1005.86
2016-06-30T01:18:18.491Z,1005.82
2016-06-30T01:19:18.491Z,1005.79
2016-06-30T01:20:18.494Z,1005.81
2016-06-30T01:21:18.494Z,1005.77
2016-06-30T01:22:18.533Z,1005.75
2016-06-30T01:23:18.490Z,1005.76
2016-06-30T01:24:18.496Z,1005.72
2016-06-30T01:25:18.501Z,1005.68
2016-06-30T01:26:18.508Z,1005.7
2016-06-30T01:27:18.498Z,1005.72
2016-06-30T01:28:18.493Z,1005.7
2016-06-30T01:29:18.498Z,1005.69
2016-06-30T01:30:18.501Z,1005.67
2016-06-30T01:31:18.492Z,1005.69
2016-06-30T01:32:18.502Z,1005.68
2016-06-30T01:33:18.496Z,1005.7
2016-06-30T01:34:18.491Z,1005.66
2016-06-30T01:35:18.498Z,1005.69
2016-06-30T01:36:18.498Z,1005.67
2016-06-30T01:37:18.500Z,1005.63
2016-06-30T01:38:18.499Z,1005.66
2016-06-30T01:39:18.501Z,1005.64
2016-06-30T01:40:18.502Z,1005.62
2016-06-30T01:41:18.495Z,1005.65
2016-06-30T01:42:18.499Z,1005.65
2016-06-30T01:43:18.507Z,1005.67
2016-06-30T01:44:18.497Z,1005.68
2016-06-30T01:45:18.499Z,1005.65
2016-06-30T01:46:18.499Z,1005.68
2016-06-30T01:47:18.503Z,1005.64
2016-06-30T01:48:18.511Z,1005.66
2016-06-30T01:49:18.500Z,1005.66
2016-06-30T01:50:18.497Z,1005.63
2016-06-30T01:51:18.500Z,1005.63
2016-06-30T01:52:18.504Z,1005.7
2016-06-30T01:53:18.499Z,1005.71
2016-06-30T01:54:18.502Z,1005.67
2016-06-30T01:55:18.506Z,1005.66
2016-06-30T01:56:18.501Z,1005.64
2016-06-30T01:57:18.506Z,1005.71
2016-06-30T01:58:18.506Z,1005.78
2016-06-30T01:59:18.502Z,1005.78
2016-06-30T02:00:18.506Z,1005.78
2016-06-30T02:01:18.517Z,1005.74
2016-06-30T02:02:18.506Z,1005.69
2016-06-30T02:03:18.502Z,1005.72
2016-06-30T02:04:18.520Z,1005.68
2016-06-30T02:05:18.507Z,1005.76
2016-06-30T02:06:18.501Z,1005.78
2016-06-30T02:07:18.707Z,1005.75
2016-06-30T02:08:18.513Z,1005.75
2016-06-30T02:09:18.506Z,1005.78
2016-06-30T02:10:18.542Z,1005.75
2016-06-30T02:11:18.510Z,1005.79
2016-06-30T02:12:18.508Z,1005.75
2016-06-30T02:13:18.506Z,1005.76
2016-06-30T02:14:18.509Z,1005.75
2016-06-30T02:15:18.502Z,1005.76
2016-06-30T02:16:18.510Z,1005.78
2016-06-30T02:17:18.506Z,1005.78
2016-06-30T02:18:18.517Z,1005.79
2016-06-30T02:19:18.505Z,1005.82
2016-06-30T02:20:18.506Z,1005.82
2016-06-30T02:21:18.505Z,1005.8
2016-06-30T02:22:18.505Z,1005.78
2016-06-30T02:23:18.508Z,1005.76
2016-06-30T02:24:18.506Z,1005.79
2016-06-30T02:25:18.507Z,1005.77
2016-06-30T02:26:18.515Z,1005.78
2016-06-30T02:27:18.507Z,1005.82
2016-06-30T02:28:18.508Z,1005.84
2016-06-30T02:29:18.531Z,1005.83
2016-06-30T02:30:18.518Z,1005.82
2016-06-30T02:31:18.511Z,1005.84
2016-06-30T02:32:18.522Z,1005.83
2016-06-30T02:33:18.512Z,1005.8
2016-06-30T02:34:18.518Z,1005.87
2016-06-30T02:35:18.516Z,1005.83
2016-06-30T02:36:18.530Z,1005.85
2016-06-30T02:37:18.512Z,1005.86
2016-06-30T02:38:18.509Z,1005.83
2016-06-30T02:39:18.512Z,1005.85
2016-06-30T02:40:18.509Z,1005.87
2016-06-30T02:41:18.512Z,1005.83
2016-06-30T02:42:18.510Z,1005.82
2016-06-30T02:43:18.511Z,1005.81
2016-06-30T02:44:18.520Z,1005.79
2016-06-30T02:45:18.510Z,1005.8
2016-06-30T02:46:18.510Z,1005.81
2016-06-30T02:47:18.511Z,1005.8
2016-06-30T02:48:18.513Z,1005.81
2016-06-30T02:49:18.512Z,1005.81
2016-06-30T02:50:18.519Z,1005.78
2016-06-30T02:51:18.512Z,1005.81
2016-06-30T02:52:18.512Z,1005.8
2016-06-30T02:53:18.517Z,1005.84
2016-06-30T02:54:18.512Z,1005.84
2016-06-30T02:55:18.515Z,1005.86
2016-06-30T02:56:18.520Z,1005.82
2016-06-30T02:57:18.513Z,1005.8
2016-06-30T02:58:18.519Z,1005.87
2016-06-30T02:59:18.512Z,1005.86
2016-06-30T03:00:18.512Z,1005.89
2016-06-30T03:01:18.513Z,1005.87
2016-06-30T03:02:18.508Z,1005.88
2016-06-30T03:03:18.515Z,1005.89
2016-06-30T03:04:18.515Z,1005.87
2016-06-30T03:05:18.512Z,1005.87
2016-06-30T03:06:18.510Z,1005.93
2016-06-30T03:07:18.513Z,1005.91
2016-06-30T03:08:18.519Z,1005.93
2016-06-30T03:09:18.515Z,1005.94
2016-06-30T03:10:18.516Z,1005.93
2016-06-30T03:11:18.512Z,1005.93
2016-06-30T03:12:18.511Z,1005.93
2016-06-30T03:13:18.519Z,1005.89
2016-06-30T03:14:18.715Z,1005.89
2016-06-30T03:15:18.513Z,1005.92
2016-06-30T03:16:18.515Z,1005.88
2016-06-30T03:17:18.512Z,1005.88
2016-06-30T03:18:18.511Z,1005.91
2016-06-30T03:19:18.526Z,1005.89
2016-06-30T03:20:18.718Z,1005.91
2016-06-30T03:21:18.517Z,1005.92
2016-06-30T03:22:18.574Z,1005.94
2016-06-30T03:23:18.567Z,1005.96
2016-06-30T03:24:18.512Z,1005.93
2016-06-30T03:25:18.724Z,1005.96
2016-06-30T03:26:18.522Z,1006.02
2016-06-30T03:27:18.512Z,1006.01
2016-06-30T03:28:18.515Z,1006.04
2016-06-30T03:29:18.515Z,1006.02
2016-06-30T03:30:18.511Z,1006.03
2016-06-30T03:31:18.510Z,1006.02
2016-06-30T03:32:18.512Z,1006.06
2016-06-30T03:33:18.515Z,1006.05
2016-06-30T03:34:18.516Z,1006.03
2016-06-30T03:35:18.517Z,1006.06
2016-06-30T03:36:18.511Z,1006.05
2016-06-30T03:37:18.513Z,1006.07
2016-06-30T03:38:18.529Z,1006.11
2016-06-30T03:39:18.513Z,1006.12
2016-06-30T03:40:18.517Z,1006.11
2016-06-30T03:41:18.518Z,1006.12
2016-06-30T03:42:18.510Z,1006.11
2016-06-30T03:43:18.514Z,1006.08
2016-06-30T03:44:18.514Z,1006.11
2016-06-30T03:45:18.518Z,1006.09
2016-06-30T03:46:18.511Z,1006.09
2016-06-30T03:47:18.716Z,1006.16
2016-06-30T03:48:18.515Z,1006.13
2016-06-30T03:49:18.509Z,1006.15
2016-06-30T03:50:18.512Z,1006.14
2016-06-30T03:51:18.517Z,1006.2
2016-06-30T03:52:18.514Z,1006.18
2016-06-30T03:53:18.512Z,1006.18
2016-06-30T03:54:18.513Z,1006.19
2016-06-30T03:55:18.514Z,1006.2
2016-06-30T03:56:18.518Z,1006.19
2016-06-30T03:57:18.517Z,1006.23
2016-06-30T03:58:18.519Z,1006.22
2016-06-30T03:59:18.512Z,1006.2
2016-06-30T04:00:18.517Z,1006.26
2016-06-30T04:01:18.724Z,1006.27
2016-06-30T04:02:18.513Z,1006.25
2016-06-30T04:03:18.514Z,1006.28
2016-06-30T04:04:18.514Z,1006.27
2016-06-30T04:05:18.514Z,1006.32
2016-06-30T04:06:18.513Z,1006.32
2016-06-30T04:07:18.514Z,1006.35
2016-06-30T04:08:18.518Z,1006.32
2016-06-30T04:09:18.519Z,1006.4
2016-06-30T04:10:18.510Z,1006.34
2016-06-30T04:11:18.514Z,1006.36
2016-06-30T04:12:18.715Z,1006.34
2016-06-30T04:13:18.514Z,1006.34
2016-06-30T04:14:18.508Z,1006.41
2016-06-30T04:15:18.518Z,1006.41
2016-06-30T04:16:18.517Z,1006.42
2016-06-30T04:17:18.506Z,1006.44
2016-06-30T04:18:18.711Z,1006.38
2016-06-30T04:19:18.514Z,1006.46
2016-06-30T04:20:18.517Z,1006.51
2016-06-30T04:21:18.513Z,1006.42
2016-06-30T04:22:18.514Z,1006.47
2016-06-30T04:23:18.512Z,1006.41
2016-06-30T04:24:18.512Z,1006.48
2016-06-30T04:25:18.515Z,1006.51
2016-06-30T04:26:18.508Z,1006.51
2016-06-30T04:27:18.542Z,1006.5
2016-06-30T04:28:18.513Z,1006.56
2016-06-30T04:29:18.507Z,1006.57
2016-06-30T04:30:18.513Z,1006.57
2016-06-30T04:31:18.514Z,1006.57
2016-06-30T04:32:18.514Z,1006.56
2016-06-30T04:33:18.513Z,1006.57
2016-06-30T04:34:18.521Z,1006.59
2016-06-30T04:35:18.509Z,1006.58
2016-06-30T04:36:18.514Z,1006.61
2016-06-30T04:37:18.513Z,1006.64
2016-06-30T04:38:18.511Z,1006.61
2016-06-30T04:39:18.513Z,1006.62
2016-06-30T04:40:18.510Z,1006.6
2016-06-30T04:41:18.507Z,1006.63
2016-06-30T04:42:18.508Z,1006.62
2016-06-30T04:43:18.714Z,1006.62
2016-06-30T04:44:18.511Z,1006.63
2016-06-30T04:45:18.507Z,1006.62
2016-06-30T04:46:18.510Z,1006.63
2016-06-30T04:47:18.500Z,1006.62
2016-06-30T04:48:18.538Z,1006.6
2016-06-30T04:49:18.508Z,1006.65
2016-06-30T04:50:18.507Z,1006.64
2016-06-30T04:51:18.505Z,1006.64
2016-06-30T04:52:18.502Z,1006.67
2016-06-30T04:53:18.501Z,1006.63
2016-06-30T04:54:18.506Z,1006.65
2016-06-30T04:55:18.509Z,1006.59
2016-06-30T04:56:18.505Z,1006.6
2016-06-30T04:57:18.517Z,1006.64
2016-06-30T04:58:18.506Z,1006.61
2016-06-30T04:59:18.505Z,1006.64
2016-06-30T05:00:18.702Z,1006.61
2016-06-30T05:01:18.507Z,1006.62
2016-06-30T05:02:18.501Z,1006.63
2016-06-30T05:03:18.502Z,1006.64
2016-06-30T05:04:18.501Z,1006.64
2016-06-30T05:05:18.503Z,1006.61
2016-06-30T05:06:18.502Z,1006.61
2016-06-30T05:07:18.506Z,1006.65
2016-06-30T05:08:18.498Z,1006.7
2016-06-30T05:09:18.500Z,1006.69
2016-06-30T05:10:18.506Z,1006.7
2016-06-30T05:11:18.503Z,1006.69
2016-06-30T05:12:18.507Z,1006.73
2016-06-30T05:13:18.500Z,1006.75
2016-06-30T05:14:18.497Z,1006.74
2016-06-30T05:15:18.507Z,1006.74
2016-06-30T05:16:18.499Z,1006.74
2016-06-30T05:17:18.501Z,1006.72
2016-06-30T05:18:18.498Z,1006.74
2016-06-30T05:19:18.505Z,1006.71
2016-06-30T05:20:18.498Z,1006.77
2016-06-30T05:21:18.502Z,1006.75
2016-06-30T05:22:18.497Z,1006.78
2016-06-30T05:23:18.500Z,1006.74
2016-06-30T05:24:18.494Z,1006.8
2016-06-30T05:25:18.494Z,1006.81
2016-06-30T05:26:18.502Z,1006.79
2016-06-30T05:27:18.506Z,1006.84
2016-06-30T05:28:18.495Z,1006.79
2016-06-30T05:29:18.499Z,1006.79
2016-06-30T05:30:18.511Z,1006.78
2016-06-30T05:31:18.497Z,1006.75
2016-06-30T05:32:18.494Z,1006.77
2016-06-30T05:33:18.498Z,1006.76
2016-06-30T05:34:18.494Z,1006.75
2016-06-30T05:35:18.499Z,1006.76
2016-06-30T05:36:18.506Z,1006.8
2016-06-30T05:37:18.707Z,1006.8
2016-06-30T05:38:18.503Z,1006.8
2016-06-30T05:39:18.501Z,1006.82
2016-06-30T05:40:18.493Z,1006.81
2016-06-30T05:41:18.516Z,1006.82
2016-06-30T05:42:18.494Z,1006.87
2016-06-30T05:43:18.496Z,1006.84
2016-06-30T05:44:18.493Z,1006.84
2016-06-30T05:45:18.495Z,1006.87
2016-06-30T05:46:18.497Z,1006.89
2016-06-30T05:47:18.489Z,1006.86
2016-06-30T05:48:18.694Z,1006.87
2016-06-30T05:49:18.499Z,1006.79
2016-06-30T05:50:18.491Z,1006.85
2016-06-30T05:51:18.491Z,1006.83
2016-06-30T05:52:18.495Z,1006.79
2016-06-30T05:53:18.698Z,1006.83
2016-06-30T05:54:18.491Z,1006.81
2016-06-30T05:55:18.494Z,1006.86
2016-06-30T05:56:18.495Z,1006.86
2016-06-30T05:57:18.496Z,1006.82
2016-06-30T05:58:18.498Z,1006.88
2016-06-30T05:59:18.491Z,1006.89
2016-06-30T06:00:18.497Z,1006.92
2016-06-30T06:01:18.489Z,1006.94
2016-06-30T06:02:18.691Z,1006.9
2016-06-30T06:03:18.494Z,1006.91
2016-06-30T06:04:18.490Z,1006.91
2016-06-30T06:05:18.494Z,1006.95
2016-06-30T06:06:18.492Z,1006.95
2016-06-30T06:07:18.489Z,1006.96
2016-06-30T06:08:18.487Z,1006.96
2016-06-30T06:09:18.490Z,1006.94
2016-06-30T06:10:18.488Z,1007.01
2016-06-30T06:11:18.485Z,1006.97
2016-06-30T06:12:18.489Z,1006.97
2016-06-30T06:13:18.489Z,1007
2016-06-30T06:14:18.488Z,1007
2016-06-30T06:15:18.488Z,1007.04
2016-06-30T06:16:18.489Z,1007
2016-06-30T06:17:18.488Z,1007.05
2016-06-30T06:18:18.494Z,1007.02
2016-06-30T06:19:18.486Z,1007.04
2016-06-30T06:20:18.487Z,1007.06
2016-06-30T06:21:18.497Z,1007.01
2016-06-30T06:22:18.511Z,1007.01
2016-06-30T06:23:18.489Z,1007.01
2016-06-30T06:24:18.682Z,1007.02
2016-06-30T06:25:18.494Z,1007.06
2016-06-30T06:26:18.497Z,1007.03
2016-06-30T06:27:18.507Z,1007.05
2016-06-30T06:28:18.490Z,1007.05
2016-06-30T06:29:18.487Z,1007
2016-06-30T06:30:18.479Z,1007.04
2016-06-30T06:31:18.482Z,1007.02
2016-06-30T06:32:18.482Z,1007.01
2016-06-30T06:33:18.481Z,1007
2016-06-30T06:34:18.481Z,1007.05
2016-06-30T06:35:18.487Z,1006.97
2016-06-30T06:36:18.486Z,1006.97
2016-06-30T06:37:18.684Z,1007.06
2016-06-30T06:38:18.493Z,1007.05
2016-06-30T06:39:18.483Z,1007.02
2016-06-30T06:40:18.485Z,1007.04
2016-06-30T06:41:18.484Z,1007.04
2016-06-30T06:42:18.478Z,1007.04
2016-06-30T06:43:18.486Z,1006.99
2016-06-30T06:44:18.480Z,1007.03
2016-06-30T06:45:18.498Z,1007.02
2016-06-30T06:46:18.501Z,1007.01
2016-06-30T06:47:18.479Z,1007.05
2016-06-30T06:48:18.484Z,1007.1
2016-06-30T06:49:18.479Z,1007.09
2016-06-30T06:50:18.479Z,1007.1
2016-06-30T06:51:18.489Z,1007.13
2016-06-30T06:52:18.482Z,1007.09
2016-06-30T06:53:18.680Z,1007.1
2016-06-30T06:54:18.491Z,1007.1
2016-06-30T06:55:18.476Z,1007.1
2016-06-30T06:56:18.485Z,1007.05
2016-06-30T06:57:18.478Z,1007.1
2016-06-30T06:58:18.483Z,1007.11
2016-06-30T06:59:18.674Z,1007.12
2016-06-30T07:00:18.493Z,1007.11
2016-06-30T07:01:18.477Z,1007.11
2016-06-30T07:02:18.478Z,1007.13
2016-06-30T07:03:18.477Z,1007.16
2016-06-30T07:04:18.475Z,1007.15
2016-06-30T07:05:18.474Z,1007.13
2016-06-30T07:06:18.682Z,1007.12
2016-06-30T07:07:18.474Z,1007.16
2016-06-30T07:08:18.479Z,1007.16
2016-06-30T07:09:18.476Z,1007.12
2016-06-30T07:10:18.483Z,1007.1
2016-06-30T07:11:18.475Z,1007.13
2016-06-30T07:12:18.473Z,1007.1
2016-06-30T07:13:18.470Z,1007.1
2016-06-30T07:14:18.476Z,1007.11
2016-06-30T07:15:18.482Z,1007.17
2016-06-30T07:16:18.474Z,1007.14
2016-06-30T07:17:18.468Z,1007.2
2016-06-30T07:18:18.482Z,1007.17
2016-06-30T07:19:18.467Z,1007.16
2016-06-30T07:20:18.470Z,1007.17
2016-06-30T07:21:18.470Z,1007.22
2016-06-30T07:22:18.471Z,1007.21
2016-06-30T07:23:18.471Z,1007.18
2016-06-30T07:24:18.473Z,1007.16
2016-06-30T07:25:18.470Z,1007.22
2016-06-30T07:26:18.470Z,1007.23
2016-06-30T07:27:18.466Z,1007.18
2016-06-30T07:28:18.474Z,1007.22
2016-06-30T07:29:18.470Z,1007.21
2016-06-30T07:30:18.470Z,1007.21
2016-06-30T07:31:18.476Z,1007.22
2016-06-30T07:32:18.466Z,1007.23
2016-06-30T07:33:18.468Z,1007.19
2016-06-30T07:34:18.469Z,1007.22
2016-06-30T07:35:18.465Z,1007.22
2016-06-30T07:36:18.462Z,1007.25
2016-06-30T07:37:18.470Z,1007.24
2016-06-30T07:38:18.467Z,1007.27
2016-06-30T07:39:18.461Z,1007.29
2016-06-30T07:40:18.459Z,1007.29
2016-06-30T07:41:18.473Z,1007.31
2016-06-30T07:42:18.467Z,1007.31
2016-06-30T07:43:18.467Z,1007.28
2016-06-30T07:44:18.462Z,1007.29
2016-06-30T07:45:18.466Z,1007.29
2016-06-30T07:46:18.461Z,1007.34
2016-06-30T07:47:18.459Z,1007.33
2016-06-30T07:48:18.461Z,1007.34
2016-06-30T07:49:18.463Z,1007.36
2016-06-30T07:50:18.468Z,1007.33
2016-06-30T07:51:18.458Z,1007.34
2016-06-30T07:52:18.460Z,1007.31
2016-06-30T07:53:18.458Z,1007.33
2016-06-30T07:54:18.468Z,1007.36
2016-06-30T07:55:18.462Z,1007.32
2016-06-30T07:56:18.457Z,1007.35
2016-06-30T07:57:18.460Z,1007.39
2016-06-30T07:58:18.457Z,1007.37
2016-06-30T07:59:18.466Z,1007.38
2016-06-30T08:00:18.458Z,1007.38
2016-06-30T08:01:18.451Z,1007.38
2016-06-30T08:02:18.458Z,1007.45
2016-06-30T08:03:18.457Z,1007.43
2016-06-30T08:04:18.454Z,1007.4
2016-06-30T08:05:18.454Z,1007.41
2016-06-30T08:06:18.458Z,1007.45
2016-06-30T08:07:18.456Z,1007.47
2016-06-30T08:08:18.453Z,1007.39
2016-06-30T08:09:18.454Z,1007.39
2016-06-30T08:10:18.462Z,1007.42
2016-06-30T08:11:18.451Z,1007.39
2016-06-30T08:12:18.450Z,1007.41
2016-06-30T08:13:18.453Z,1007.42
2016-06-30T08:14:18.450Z,1007.49
2016-06-30T08:15:18.471Z,1007.44
2016-06-30T08:16:18.650Z,1007.43
2016-06-30T08:17:18.454Z,1007.46
2016-06-30T08:18:18.453Z,1007.46
2016-06-30T08:19:18.450Z,1007.46
2016-06-30T08:20:18.451Z,1007.48
2016-06-30T08:21:18.459Z,1007.47
2016-06-30T08:22:18.649Z,1007.44
2016-06-30T08:23:18.450Z,1007.46
2016-06-30T08:24:18.453Z,1007.44
2016-06-30T08:25:18.445Z,1007.38
2016-06-30T08:26:18.476Z,1007.41
2016-06-30T08:27:18.463Z,1007.37
2016-06-30T08:28:18.446Z,1007.41
2016-06-30T08:29:18.461Z,1007.41
2016-06-30T08:30:18.461Z,1007.45
2016-06-30T08:31:18.451Z,1007.42
2016-06-30T08:32:18.443Z,1007.42
2016-06-30T08:33:18.448Z,1007.41
2016-06-30T08:34:18.445Z,1007.38
2016-06-30T08:35:18.451Z,1007.47
2016-06-30T08:36:18.442Z,1007.44
2016-06-30T08:37:18.456Z,1007.43
2016-06-30T08:38:18.452Z,1007.4
2016-06-30T08:39:18.445Z,1007.44
2016-06-30T08:40:18.445Z,1007.45
2016-06-30T08:41:18.445Z,1007.39
2016-06-30T08:42:18.445Z,1007.41
2016-06-30T08:43:18.452Z,1007.43
2016-06-30T08:44:18.442Z,1007.42
2016-06-30T08:45:18.441Z,1007.44
2016-06-30T08:46:18.445Z,1007.48
2016-06-30T08:47:18.441Z,1007.46
2016-06-30T08:48:18.446Z,1007.47
2016-06-30T08:49:18.440Z,1007.47
2016-06-30T08:50:18.442Z,1007.49
2016-06-30T08:51:18.437Z,1007.5
2016-06-30T08:52:18.440Z,1007.48
2016-06-30T08:53:18.442Z,1007.5
2016-06-30T08:54:18.438Z,1007.5
2016-06-30T08:55:18.441Z,1007.56
2016-06-30T08:56:18.465Z,1007.5
2016-06-30T08:57:18.455Z,1007.53
2016-06-30T08:58:18.443Z,1007.57
2016-06-30T08:59:18.450Z,1007.51
2016-06-30T09:00:18.434Z,1007.53
2016-06-30T09:01:18.438Z,1007.5
2016-06-30T09:02:18.440Z,1007.53
2016-06-30T09:03:18.441Z,1007.55
2016-06-30T09:04:18.434Z,1007.5
2016-06-30T09:05:18.444Z,1007.52
2016-06-30T09:06:18.441Z,1007.51
2016-06-30T09:07:18.436Z,1007.51
2016-06-30T09:08:18.437Z,1007.51
2016-06-30T09:09:18.437Z,1007.53
2016-06-30T09:10:18.438Z,1007.52
2016-06-30T09:11:18.435Z,1007.53
2016-06-30T09:12:18.442Z,1007.53
2016-06-30T09:13:18.435Z,1007.5
2016-06-30T09:14:18.432Z,1007.47
2016-06-30T09:15:18.438Z,1007.43
2016-06-30T09:16:18.438Z,1007.43
2016-06-30T09:17:18.436Z,1007.43
2016-06-30T09:18:18.434Z,1007.43
2016-06-30T09:19:18.429Z,1007.45
2016-06-30T09:20:18.429Z,1007.46
2016-06-30T09:21:18.431Z,1007.44
2016-06-30T09:22:18.434Z,1007.43
2016-06-30T09:23:18.439Z,1007.46
2016-06-30T09:24:18.435Z,1007.46
2016-06-30T09:25:18.635Z,1007.46
2016-06-30T09:26:18.430Z,1007.41
2016-06-30T09:27:18.463Z,1007.43
2016-06-30T09:28:18.430Z,1007.45
2016-06-30T09:29:18.430Z,1007.42
2016-06-30T09:30:18.432Z,1007.45
2016-06-30T09:31:18.633Z,1007.45
2016-06-30T09:32:18.433Z,1007.46
2016-06-30T09:33:18.430Z,1007.49
2016-06-30T09:34:18.431Z,1007.53
2016-06-30T09:35:18.426Z,1007.56
2016-06-30T09:36:18.434Z,1007.57
2016-06-30T09:37:18.430Z,1007.59
2016-06-30T09:38:18.428Z,1007.64
2016-06-30T09:39:18.426Z,1007.61
2016-06-30T09:40:18.423Z,1007.64
2016-06-30T09:41:18.431Z,1007.65
2016-06-30T09:42:18.434Z,1007.64
2016-06-30T09:43:18.425Z,1007.64
2016-06-30T09:44:18.433Z,1007.62
2016-06-30T09:45:18.432Z,1007.6
2016-06-30T09:46:18.427Z,1007.65
2016-06-30T09:47:18.431Z,1007.66
2016-06-30T09:48:18.627Z,1007.65
2016-06-30T09:49:18.628Z,1007.69
2016-06-30T09:50:18.424Z,1007.68
2016-06-30T09:51:18.426Z,1007.71
2016-06-30T09:52:18.431Z,1007.69
2016-06-30T09:53:18.425Z,1007.72
2016-06-30T09:54:18.423Z,1007.71
2016-06-30T09:55:18.422Z,1007.71
2016-06-30T09:56:18.425Z,1007.76
2016-06-30T09:57:18.425Z,1007.73
2016-06-30T09:58:18.423Z,1007.72
2016-06-30T09:59:18.629Z,1007.73
2016-06-30T10:00:18.421Z,1007.74
2016-06-30T10:01:18.432Z,1007.7
2016-06-30T10:02:18.426Z,1007.73
2016-06-30T10:03:18.424Z,1007.71
2016-06-30T10:04:18.428Z,1007.76
2016-06-30T10:05:18.446Z,1007.73
2016-06-30T10:06:18.436Z,1007.73
2016-06-30T10:07:18.428Z,1007.73
2016-06-30T10:08:18.424Z,1007.72
2016-06-30T10:09:18.424Z,1007.73
2016-06-30T10:10:18.423Z,1007.74
2016-06-30T10:11:18.424Z,1007.73
2016-06-30T10:12:18.422Z,1007.76
2016-06-30T10:13:18.422Z,1007.77
2016-06-30T10:14:18.423Z,1007.75
2016-06-30T10:15:18.419Z,1007.73
2016-06-30T10:16:18.422Z,1007.71
2016-06-30T10:17:18.425Z,1007.76
2016-06-30T10:18:18.424Z,1007.76
2016-06-30T10:19:18.419Z,1007.73
2016-06-30T10:20:18.422Z,1007.84
2016-06-30T10:21:18.419Z,1007.83
2016-06-30T10:22:18.424Z,1007.78
2016-06-30T10:23:18.421Z,1007.8
2016-06-30T10:24:18.419Z,1007.8
2016-06-30T10:25:18.429Z,1007.82
2016-06-30T10:26:18.422Z,1007.8
2016-06-30T10:27:18.420Z,1007.86
2016-06-30T10:28:18.431Z,1007.83
2016-06-30T10:29:18.423Z,1007.84
2016-06-30T10:30:18.416Z,1007.86
2016-06-30T10:31:18.414Z,1007.89
2016-06-30T10:32:18.417Z,1007.88
2016-06-30T10:33:18.423Z,1007.92
2016-06-30T10:34:18.424Z,1007.93
2016-06-30T10:35:18.423Z,1007.92
2016-06-30T10:36:18.419Z,1007.92
2016-06-30T10:37:18.413Z,1007.99
2016-06-30T10:38:18.413Z,1007.95
2016-06-30T10:39:18.418Z,1007.96
2016-06-30T10:40:18.420Z,1008
2016-06-30T10:41:18.424Z,1007.96
2016-06-30T10:42:18.412Z,1007.98
2016-06-30T10:43:18.415Z,1008.01
2016-06-30T10:44:18.421Z,1008.02
2016-06-30T10:45:18.424Z,1007.96
2016-06-30T10:46:18.428Z,1008.01
2016-06-30T10:47:18.419Z,1008.02
2016-06-30T10:48:18.416Z,1008.03
2016-06-30T10:49:18.424Z,1008.03
2016-06-30T10:50:18.425Z,1008.01
2016-06-30T10:51:18.414Z,1008.04
2016-06-30T10:52:18.419Z,1007.99
2016-06-30T10:53:18.415Z,1007.98
2016-06-30T10:54:18.414Z,1007.98
2016-06-30T10:55:18.423Z,1007.99
2016-06-30T10:56:18.417Z,1007.98
2016-06-30T10:57:18.413Z,1007.97
2016-06-30T10:58:18.415Z,1007.97
2016-06-30T10:59:18.413Z,1007.98
2016-06-30T11:00:18.414Z,1007.99
2016-06-30T11:01:18.417Z,1007.99
2016-06-30T11:02:18.416Z,1008.03
2016-06-30T11:03:18.414Z,1008.03
2016-06-30T11:04:18.411Z,1007.97
2016-06-30T11:05:18.418Z,1007.91
2016-06-30T11:06:18.414Z,1007.95
2016-06-30T11:07:18.410Z,1007.96
2016-06-30T11:08:18.413Z,1007.94
2016-06-30T11:09:18.415Z,1007.94
2016-06-30T11:10:18.419Z,1007.97
2016-06-30T11:11:18.417Z,1007.99
2016-06-30T11:12:18.413Z,1007.99
2016-06-30T11:13:18.412Z,1007.96
2016-06-30T11:14:18.621Z,1008.01
2016-06-30T11:15:18.414Z,1007.97
2016-06-30T11:16:18.416Z,1008.01
2016-06-30T11:17:18.411Z,1008.05
2016-06-30T11:18:18.412Z,1008.07
2016-06-30T11:19:18.423Z,1008.06
2016-06-30T11:20:18.426Z,1008.06
2016-06-30T11:21:18.412Z,1008.05
2016-06-30T11:22:18.411Z,1008.05
2016-06-30T11:23:18.417Z,1008.01
2016-06-30T11:24:18.415Z,1008
2016-06-30T11:25:18.422Z,1007.98
2016-06-30T11:26:18.412Z,1007.98
2016-06-30T11:27:18.631Z,1007.97
2016-06-30T11:28:18.418Z,1007.99
2016-06-30T11:29:18.451Z,1008.04
2016-06-30T11:30:18.419Z,1008.06
2016-06-30T11:31:18.413Z,1008.03
2016-06-30T11:32:18.423Z,1008.02
2016-06-30T11:33:18.421Z,1008.09
2016-06-30T11:34:18.627Z,1008.05
2016-06-30T11:35:18.419Z,1008.04
2016-06-30T11:36:18.414Z,1008.02
2016-06-30T11:37:18.410Z,1008.04
2016-06-30T11:38:18.413Z,1008.01
2016-06-30T11:39:18.411Z,1008.01
2016-06-30T11:40:18.418Z,1008.01
2016-06-30T11:41:18.417Z,1008.04
2016-06-30T11:42:18.418Z,1008.04
2016-06-30T11:43:18.414Z,1008.04
2016-06-30T11:44:31.149Z,1008.06
2016-06-30T11:45:18.414Z,1008.03
2016-06-30T11:46:18.412Z,1008.02
2016-06-30T11:47:18.411Z,1008.06
2016-06-30T11:48:18.443Z,1008.11
2016-06-30T11:49:18.413Z,1008.11
2016-06-30T11:50:18.422Z,1008.05
2016-06-30T11:51:18.406Z,1008.08
2016-06-30T11:52:18.412Z,1008.09
2016-06-30T11:53:18.423Z,1008.1
2016-06-30T11:54:18.435Z,1008.08
2016-06-30T11:55:18.412Z,1008.13
2016-06-30T11:56:18.416Z,1008.1
2016-06-30T11:57:18.418Z,1008.12
2016-06-30T11:58:18.414Z,1008.13
2016-06-30T11:59:18.417Z,1008.13
2016-06-30T12:00:18.422Z,1008.15
2016-06-30T12:01:18.415Z,1008.17
2016-06-30T12:02:18.614Z,1008.22
2016-06-30T12:03:18.413Z,1008.19
2016-06-30T12:04:18.409Z,1008.23
2016-06-30T12:05:18.446Z,1008.2
2016-06-30T12:06:18.416Z,1008.24
2016-06-30T12:07:18.415Z,1008.25
2016-06-30T12:08:18.628Z,1008.27